sensor_id;sensor_type;location;lat;lon;timestamp;pressure;altitude;pressure_sealevel;temperature;humidity
18652;BME280;9455;54.302;10.124;2022-12-07T00:01:37;101065.38;;;1.73;98.66
18652;BME280;9455;54.302;10.124;2022-12-07T00:04:07;101063.69;;;1.72;98.56
18652;BME280;9455;54.302;10.124;2022-12-07T00:06:36;101057.91;;;1.64;99.16
18652;BME280;9455;54.302;10.124;2022-12-07T00:09:04;101056.16;;;1.64;99.12
18652;BME280;9455;54.302;10.124;2022-12-07T00:11:31;101056.72;;;1.71;98.83
18652;BME280;9455;54.302;10.124;2022-12-07T00:14:00;101054.59;;;1.60;98.13
18652;BME280;9455;54.302;10.124;2022-12-07T00:16:30;101054.53;;;1.62;99.06
18652;BME280;9455;54.302;10.124;2022-12-07T00:18:57;101049.81;;;1.68;99.83
18652;BME280;9455;54.302;10.124;2022-12-07T00:21:27;101039.09;;;1.73;99.58
18652;BME280;9455;54.302;10.124;2022-12-07T00:23:54;101045.50;;;1.86;98.90
18652;BME280;9455;54.302;10.124;2022-12-07T00:26:23;101043.16;;;1.80;99.37
18652;BME280;9455;54.302;10.124;2022-12-07T00:28:52;101045.50;;;1.86;98.39
18652;BME280;9455;54.302;10.124;2022-12-07T00:31:20;101045.34;;;1.89;98.54
18652;BME280;9455;54.302;10.124;2022-12-07T00:33:47;101038.66;;;1.82;98.35
18652;BME280;9455;54.302;10.124;2022-12-07T00:36:17;101032.97;;;1.91;99.74
18652;BME280;9455;54.302;10.124;2022-12-07T00:38:45;101029.50;;;1.90;99.19
18652;BME280;9455;54.302;10.124;2022-12-07T00:41:14;101023.53;;;1.87;100.00
18652;BME280;9455;54.302;10.124;2022-12-07T00:43:42;101024.16;;;1.92;99.83
18652;BME280;9455;54.302;10.124;2022-12-07T00:46:10;101018.63;;;1.98;99.51
18652;BME280;9455;54.302;10.124;2022-12-07T00:48:37;101018.88;;;2.10;99.81
18652;BME280;9455;54.302;10.124;2022-12-07T00:51:05;101013.06;;;2.04;99.34
18652;BME280;9455;54.302;10.124;2022-12-07T00:53:33;101009.88;;;1.97;99.84
18652;BME280;9455;54.302;10.124;2022-12-07T00:56:06;101000.00;;;2.02;99.46
18652;BME280;9455;54.302;10.124;2022-12-07T00:58:32;101003.81;;;2.14;99.61
18652;BME280;9455;54.302;10.124;2022-12-07T01:01:00;101001.94;;;2.16;99.51
18652;BME280;9455;54.302;10.124;2022-12-07T01:03:27;101008.00;;;2.18;100.00
18652;BME280;9455;54.302;10.124;2022-12-07T01:05:55;101007.47;;;2.28;99.57
18652;BME280;9455;54.302;10.124;2022-12-07T01:08:23;100997.13;;;2.25;99.73
18652;BME280;9455;54.302;10.124;2022-12-07T01:10:58;100999.81;;;2.24;99.83
18652;BME280;9455;54.302;10.124;2022-12-07T01:13:27;101000.09;;;2.18;100.00
18652;BME280;9455;54.302;10.124;2022-12-07T01:15:57;101010.78;;;2.15;100.00
18652;BME280;9455;54.302;10.124;2022-12-07T01:18:25;101006.53;;;2.12;99.74
18652;BME280;9455;54.302;10.124;2022-12-07T01:20:59;101009.47;;;2.23;100.00
18652;BME280;9455;54.302;10.124;2022-12-07T01:23:26;101016.22;;;2.29;100.00
18652;BME280;9455;54.302;10.124;2022-12-07T01:25:56;101013.22;;;2.36;100.00
18652;BME280;9455;54.302;10.124;2022-12-07T01:28:23;101016.25;;;2.46;100.00
18652;BME280;9455;54.302;10.124;2022-12-07T01:30:59;101022.44;;;2.62;100.00
18652;BME280;9455;54.302;10.124;2022-12-07T01:33:27;101018.03;;;2.62;100.00
18652;BME280;9455;54.302;10.124;2022-12-07T01:35:55;101021.44;;;2.64;100.00
18652;BME280;9455;54.302;10.124;2022-12-07T01:38:26;101024.16;;;2.63;100.00
18652;BME280;9455;54.302;10.124;2022-12-07T01:40:56;101015.69;;;2.73;100.00
18652;BME280;9455;54.302;10.124;2022-12-07T01:43:24;101014.44;;;2.80;100.00
18652;BME280;9455;54.302;10.124;2022-12-07T01:45:52;101018.97;;;2.78;100.00
18652;BME280;9455;54.302;10.124;2022-12-07T01:48:23;101024.81;;;3.01;100.00
18652;BME280;9455;54.302;10.124;2022-12-07T01:50:53;101024.13;;;2.97;100.00
18652;BME280;9455;54.302;10.124;2022-12-07T01:53:23;101020.56;;;2.98;100.00
18652;BME280;9455;54.302;10.124;2022-12-07T01:55:52;101016.25;;;2.97;100.00
18652;BME280;9455;54.302;10.124;2022-12-07T01:58:20;101021.34;;;3.00;100.00
18652;BME280;9455;54.302;10.124;2022-12-07T02:00:47;101016.38;;;2.94;100.00
18652;BME280;9455;54.302;10.124;2022-12-07T02:03:17;101012.97;;;2.92;100.00
18652;BME280;9455;54.302;10.124;2022-12-07T02:05:46;101014.06;;;2.88;100.00
18652;BME280;9455;54.302;10.124;2022-12-07T02:08:14;101008.50;;;2.94;100.00
18652;BME280;9455;54.302;10.124;2022-12-07T02:10:41;101020.72;;;2.95;100.00
18652;BME280;9455;54.302;10.124;2022-12-07T02:13:11;101007.03;;;2.71;100.00
18652;BME280;9455;54.302;10.124;2022-12-07T02:15:47;101015.75;;;2.89;100.00
18652;BME280;9455;54.302;10.124;2022-12-07T02:18:22;101015.22;;;2.82;100.00
18652;BME280;9455;54.302;10.124;2022-12-07T02:20:57;101010.59;;;2.70;100.00
18652;BME280;9455;54.302;10.124;2022-12-07T02:23:40;101011.91;;;2.79;100.00
18652;BME280;9455;54.302;10.124;2022-12-07T02:26:28;100997.53;;;2.69;100.00
18652;BME280;9455;54.302;10.124;2022-12-07T02:29:20;101011.75;;;2.65;100.00
18652;BME280;9455;54.302;10.124;2022-12-07T02:31:55;100999.81;;;2.58;100.00
18652;BME280;9455;54.302;10.124;2022-12-07T02:34:37;100999.06;;;2.56;100.00
18652;BME280;9455;54.302;10.124;2022-12-07T02:37:10;100998.75;;;2.62;100.00
18652;BME280;9455;54.302;10.124;2022-12-07T02:39:43;101001.53;;;2.59;100.00
18652;BME280;9455;54.302;10.124;2022-12-07T02:42:15;101007.56;;;2.44;100.00
18652;BME280;9455;54.302;10.124;2022-12-07T02:44:45;101021.28;;;2.50;100.00
18652;BME280;9455;54.302;10.124;2022-12-07T02:47:15;101013.81;;;2.41;100.00
18652;BME280;9455;54.302;10.124;2022-12-07T02:49:43;101023.81;;;2.35;100.00
18652;BME280;9455;54.302;10.124;2022-12-07T02:52:10;101027.75;;;2.26;100.00
18652;BME280;9455;54.302;10.124;2022-12-07T02:54:37;101028.91;;;2.21;100.00
18652;BME280;9455;54.302;10.124;2022-12-07T02:57:15;101028.97;;;2.19;100.00
18652;BME280;9455;54.302;10.124;2022-12-07T02:59:58;101038.50;;;2.22;100.00
18652;BME280;9455;54.302;10.124;2022-12-07T03:02:35;101033.72;;;2.11;100.00
18652;BME280;9455;54.302;10.124;2022-12-07T03:05:21;101037.69;;;2.03;100.00
18652;BME280;9455;54.302;10.124;2022-12-07T03:07:55;101040.19;;;2.04;100.00
18652;BME280;9455;54.302;10.124;2022-12-07T03:10:31;101036.28;;;2.13;100.00
18652;BME280;9455;54.302;10.124;2022-12-07T03:13:05;101034.19;;;2.02;100.00
18652;BME280;9455;54.302;10.124;2022-12-07T03:15:40;101033.19;;;2.05;100.00
18652;BME280;9455;54.302;10.124;2022-12-07T03:18:11;101032.97;;;2.09;100.00
18652;BME280;9455;54.302;10.124;2022-12-07T03:20:41;101029.03;;;2.18;100.00
18652;BME280;9455;54.302;10.124;2022-12-07T03:23:10;101024.84;;;2.14;100.00
18652;BME280;9455;54.302;10.124;2022-12-07T03:25:40;101024.25;;;2.26;100.00
18652;BME280;9455;54.302;10.124;2022-12-07T03:28:08;101028.56;;;2.10;100.00
18652;BME280;9455;54.302;10.124;2022-12-07T03:30:42;101037.22;;;2.12;100.00
18652;BME280;9455;54.302;10.124;2022-12-07T03:33:13;101030.69;;;2.02;100.00
18652;BME280;9455;54.302;10.124;2022-12-07T03:35:47;101029.41;;;1.92;100.00
18652;BME280;9455;54.302;10.124;2022-12-07T03:38:19;101024.16;;;1.92;100.00
18652;BME280;9455;54.302;10.124;2022-12-07T03:40:50;101025.00;;;2.11;100.00
18652;BME280;9455;54.302;10.124;2022-12-07T03:43:21;101021.47;;;2.29;100.00
18652;BME280;9455;54.302;10.124;2022-12-07T03:45:56;101016.28;;;2.27;100.00
18652;BME280;9455;54.302;10.124;2022-12-07T03:48:28;101022.84;;;2.19;100.00
18652;BME280;9455;54.302;10.124;2022-12-07T03:51:06;101016.19;;;2.12;100.00
18652;BME280;9455;54.302;10.124;2022-12-07T03:53:38;101015.31;;;2.11;100.00
18652;BME280;9455;54.302;10.124;2022-12-07T03:56:07;101015.28;;;2.30;100.00
18652;BME280;9455;54.302;10.124;2022-12-07T03:58:35;101025.69;;;2.14;100.00
18652;BME280;9455;54.302;10.124;2022-12-07T04:01:04;101019.47;;;2.17;100.00
18652;BME280;9455;54.302;10.124;2022-12-07T04:03:30;101012.03;;;2.25;100.00
18652;BME280;9455;54.302;10.124;2022-12-07T04:05:57;101016.03;;;2.15;100.00
18652;BME280;9455;54.302;10.124;2022-12-07T04:08:24;101016.56;;;2.21;100.00
18652;BME280;9455;54.302;10.124;2022-12-07T04:10:51;101013.03;;;2.22;100.00
18652;BME280;9455;54.302;10.124;2022-12-07T04:13:17;101010.16;;;2.27;100.00
18652;BME280;9455;54.302;10.124;2022-12-07T04:15:44;101007.59;;;2.08;100.00
18652;BME280;9455;54.302;10.124;2022-12-07T04:18:12;101015.41;;;2.27;100.00
18652;BME280;9455;54.302;10.124;2022-12-07T04:20:39;101023.94;;;2.15;100.00
18652;BME280;9455;54.302;10.124;2022-12-07T04:23:06;101015.31;;;2.11;100.00
18652;BME280;9455;54.302;10.124;2022-12-07T04:25:33;101023.44;;;2.07;100.00
18652;BME280;9455;54.302;10.124;2022-12-07T04:27:59;101014.78;;;2.05;100.00
18652;BME280;9455;54.302;10.124;2022-12-07T04:30:26;101015.56;;;2.07;100.00
18652;BME280;9455;54.302;10.124;2022-12-07T04:32:52;101018.03;;;2.10;100.00
18652;BME280;9455;54.302;10.124;2022-12-07T04:35:20;101020.16;;;2.20;100.00
18652;BME280;9455;54.302;10.124;2022-12-07T04:37:47;101012.22;;;2.03;100.00
18652;BME280;9455;54.302;10.124;2022-12-07T04:40:14;101008.81;;;2.01;100.00
18652;BME280;9455;54.302;10.124;2022-12-07T04:42:40;101008.50;;;2.07;100.00
18652;BME280;9455;54.302;10.124;2022-12-07T04:45:08;101005.72;;;2.10;100.00
18652;BME280;9455;54.302;10.124;2022-12-07T04:47:35;101005.41;;;1.99;100.00
18652;BME280;9455;54.302;10.124;2022-12-07T04:50:02;100997.44;;;2.01;99.93
18652;BME280;9455;54.302;10.124;2022-12-07T04:52:30;100999.00;;;2.05;100.00
18652;BME280;9455;54.302;10.124;2022-12-07T04:54:56;101005.53;;;1.96;100.00
18652;BME280;9455;54.302;10.124;2022-12-07T04:57:23;100999.13;;;2.02;100.00
18652;BME280;9455;54.302;10.124;2022-12-07T04:59:50;100999.00;;;2.05;99.95
18652;BME280;9455;54.302;10.124;2022-12-07T05:02:16;100996.31;;;1.88;100.00
18652;BME280;9455;54.302;10.124;2022-12-07T05:04:43;100996.38;;;1.86;100.00
18652;BME280;9455;54.302;10.124;2022-12-07T05:07:09;101004.13;;;1.89;100.00
18652;BME280;9455;54.302;10.124;2022-12-07T05:09:37;100996.03;;;1.94;100.00
18652;BME280;9455;54.302;10.124;2022-12-07T05:12:04;100987.75;;;1.84;100.00
18652;BME280;9455;54.302;10.124;2022-12-07T05:14:31;100984.38;;;1.81;100.00
18652;BME280;9455;54.302;10.124;2022-12-07T05:16:57;100988.88;;;1.79;100.00
18652;BME280;9455;54.302;10.124;2022-12-07T05:19:24;100987.28;;;1.75;100.00
18652;BME280;9455;54.302;10.124;2022-12-07T05:21:51;100987.75;;;1.84;100.00
18652;BME280;9455;54.302;10.124;2022-12-07T05:24:18;100987.50;;;1.89;100.00
18652;BME280;9455;54.302;10.124;2022-12-07T05:26:46;100989.78;;;1.59;100.00
18652;BME280;9455;54.302;10.124;2022-12-07T05:29:14;100984.25;;;1.65;100.00
18652;BME280;9455;54.302;10.124;2022-12-07T05:31:42;100982.22;;;1.72;100.00
18652;BME280;9455;54.302;10.124;2022-12-07T05:34:09;100981.41;;;1.70;100.00
18652;BME280;9455;54.302;10.124;2022-12-07T05:36:36;100984.25;;;1.65;100.00
18652;BME280;9455;54.302;10.124;2022-12-07T05:39:03;100982.16;;;1.73;100.00
18652;BME280;9455;54.302;10.124;2022-12-07T05:41:29;100978.16;;;1.65;100.00
18652;BME280;9455;54.302;10.124;2022-12-07T05:44:15;100978.59;;;1.56;100.00
18652;BME280;9455;54.302;10.124;2022-12-07T05:46:42;100979.53;;;1.55;100.00
18652;BME280;9455;54.302;10.124;2022-12-07T05:49:08;100971.84;;;1.50;100.00
18652;BME280;9455;54.302;10.124;2022-12-07T05:51:35;100973.69;;;1.48;100.00
18652;BME280;9455;54.302;10.124;2022-12-07T05:54:02;100973.75;;;1.47;100.00
18652;BME280;9455;54.302;10.124;2022-12-07T05:56:28;100968.94;;;1.38;100.00
18652;BME280;9455;54.302;10.124;2022-12-07T05:58:55;100964.44;;;1.40;100.00
18652;BME280;9455;54.302;10.124;2022-12-07T06:01:40;100964.59;;;1.37;100.00
18652;BME280;9455;54.302;10.124;2022-12-07T06:04:07;100960.69;;;1.27;100.00
18652;BME280;9455;54.302;10.124;2022-12-07T06:06:34;100962.94;;;1.34;100.00
18652;BME280;9455;54.302;10.124;2022-12-07T06:09:01;100961.81;;;1.21;100.00
18652;BME280;9455;54.302;10.124;2022-12-07T06:11:27;100950.03;;;1.30;100.00
18652;BME280;9455;54.302;10.124;2022-12-07T06:14:14;100954.72;;;1.23;100.00
18652;BME280;9455;54.302;10.124;2022-12-07T06:16:42;100951.94;;;1.08;100.00
18652;BME280;9455;54.302;10.124;2022-12-07T06:19:09;100952.59;;;1.13;100.00
18652;BME280;9455;54.302;10.124;2022-12-07T06:21:35;100953.78;;;1.24;100.00
18652;BME280;9455;54.302;10.124;2022-12-07T06:24:02;100955.00;;;1.17;100.00
18652;BME280;9455;54.302;10.124;2022-12-07T06:26:29;100954.84;;;1.02;100.00
18652;BME280;9455;54.302;10.124;2022-12-07T06:28:56;100954.69;;;1.05;100.00
18652;BME280;9455;54.302;10.124;2022-12-07T06:31:22;100952.13;;;1.03;100.00
18652;BME280;9455;54.302;10.124;2022-12-07T06:33:50;100961.00;;;1.01;100.00
18652;BME280;9455;54.302;10.124;2022-12-07T06:36:17;100957.31;;;1.05;100.00
18652;BME280;9455;54.302;10.124;2022-12-07T06:38:44;100951.25;;;1.04;100.00
18652;BME280;9455;54.302;10.124;2022-12-07T06:41:10;100951.00;;;1.09;100.00
18652;BME280;9455;54.302;10.124;2022-12-07T06:43:37;100952.72;;;1.10;100.00
18652;BME280;9455;54.302;10.124;2022-12-07T06:46:04;100949.72;;;0.99;100.00
18652;BME280;9455;54.302;10.124;2022-12-07T06:48:30;100958.25;;;1.04;100.00
18652;BME280;9455;54.302;10.124;2022-12-07T06:50:58;100965.34;;;1.02;100.00
18652;BME280;9455;54.302;10.124;2022-12-07T06:53:25;100967.44;;;1.14;100.00
18652;BME280;9455;54.302;10.124;2022-12-07T06:55:51;100961.38;;;1.12;100.00
18652;BME280;9455;54.302;10.124;2022-12-07T06:58:18;100958.47;;;1.18;100.00
18652;BME280;9455;54.302;10.124;2022-12-07T07:00:45;100966.22;;;1.21;100.00
18652;BME280;9455;54.302;10.124;2022-12-07T07:03:12;100957.00;;;1.12;100.00
18652;BME280;9455;54.302;10.124;2022-12-07T07:05:38;100957.84;;;1.13;100.00
18652;BME280;9455;54.302;10.124;2022-12-07T07:08:06;100967.06;;;1.21;100.00
18652;BME280;9455;54.302;10.124;2022-12-07T07:10:33;100963.59;;;1.21;100.00
18652;BME280;9455;54.302;10.124;2022-12-07T07:13:00;100965.44;;;1.19;100.00
18652;BME280;9455;54.302;10.124;2022-12-07T07:15:26;100959.53;;;1.14;100.00
18652;BME280;9455;54.302;10.124;2022-12-07T07:17:53;100959.28;;;1.20;100.00
18652;BME280;9455;54.302;10.124;2022-12-07T07:20:20;100961.91;;;1.20;100.00
18652;BME280;9455;54.302;10.124;2022-12-07T07:22:47;100956.13;;;1.12;100.00
18652;BME280;9455;54.302;10.124;2022-12-07T07:25:15;100961.19;;;1.16;100.00
18652;BME280;9455;54.302;10.124;2022-12-07T07:27:42;100967.66;;;1.28;100.00
18652;BME280;9455;54.302;10.124;2022-12-07T07:30:09;100963.09;;;1.13;100.00
18652;BME280;9455;54.302;10.124;2022-12-07T07:32:36;100963.88;;;1.15;100.00
18652;BME280;9455;54.302;10.124;2022-12-07T07:35:03;100969.06;;;1.16;100.00
18652;BME280;9455;54.302;10.124;2022-12-07T07:37:30;100970.81;;;1.16;99.93
18652;BME280;9455;54.302;10.124;2022-12-07T07:39:57;100976.75;;;1.01;99.96
18652;BME280;9455;54.302;10.124;2022-12-07T07:42:25;100975.44;;;1.11;99.64
18652;BME280;9455;54.302;10.124;2022-12-07T07:44:51;100979.69;;;1.13;99.81
18652;BME280;9455;54.302;10.124;2022-12-07T07:47:18;100982.13;;;1.18;99.99
18652;BME280;9455;54.302;10.124;2022-12-07T07:49:45;100989.00;;;1.20;100.00
18652;BME280;9455;54.302;10.124;2022-12-07T07:52:11;100985.09;;;1.29;99.31
18652;BME280;9455;54.302;10.124;2022-12-07T07:54:38;100991.78;;;1.36;99.06
18652;BME280;9455;54.302;10.124;2022-12-07T07:57:05;100988.53;;;1.31;99.19
18652;BME280;9455;54.302;10.124;2022-12-07T07:59:33;100982.22;;;1.35;98.91
18652;BME280;9455;54.302;10.124;2022-12-07T08:01:59;100990.16;;;1.52;98.88
18652;BME280;9455;54.302;10.124;2022-12-07T08:04:26;100996.69;;;1.43;98.80
18652;BME280;9455;54.302;10.124;2022-12-07T08:06:52;100999.34;;;1.62;98.52
18652;BME280;9455;54.302;10.124;2022-12-07T08:09:19;100999.03;;;1.68;97.65
18652;BME280;9455;54.302;10.124;2022-12-07T08:11:46;100998.19;;;1.67;96.93
18652;BME280;9455;54.302;10.124;2022-12-07T08:14:12;100998.31;;;1.83;96.84
18652;BME280;9455;54.302;10.124;2022-12-07T08:16:40;100995.50;;;1.69;95.73
18652;BME280;9455;54.302;10.124;2022-12-07T08:19:07;101002.31;;;1.73;95.82
18652;BME280;9455;54.302;10.124;2022-12-07T08:21:33;100994.34;;;1.93;96.61
18652;BME280;9455;54.302;10.124;2022-12-07T08:24:00;101000.28;;;1.96;95.64
18652;BME280;9455;54.302;10.124;2022-12-07T08:26:27;100997.91;;;2.09;94.93
18652;BME280;9455;54.302;10.124;2022-12-07T08:28:53;101001.00;;;2.00;95.05
18652;BME280;9455;54.302;10.124;2022-12-07T08:31:20;101006.25;;;2.00;94.13
18652;BME280;9455;54.302;10.124;2022-12-07T08:33:48;101009.66;;;2.02;94.45
18652;BME280;9455;54.302;10.124;2022-12-07T08:36:15;100995.09;;;1.95;94.24
18652;BME280;9455;54.302;10.124;2022-12-07T08:38:42;101001.19;;;2.14;93.37
18652;BME280;9455;54.302;10.124;2022-12-07T08:41:09;101002.09;;;2.13;94.15
18652;BME280;9455;54.302;10.124;2022-12-07T08:43:36;101004.25;;;2.05;93.14
18652;BME280;9455;54.302;10.124;2022-12-07T08:46:06;100997.00;;;2.10;93.15
18652;BME280;9455;54.302;10.124;2022-12-07T08:48:36;101003.69;;;2.17;92.50
18652;BME280;9455;54.302;10.124;2022-12-07T08:51:05;101010.63;;;2.18;92.30
18652;BME280;9455;54.302;10.124;2022-12-07T08:53:33;101008.31;;;2.29;92.14
18652;BME280;9455;54.302;10.124;2022-12-07T08:56:00;101015.41;;;2.27;91.74
18652;BME280;9455;54.302;10.124;2022-12-07T08:58:27;101009.63;;;2.20;91.24
18652;BME280;9455;54.302;10.124;2022-12-07T09:00:53;101005.94;;;2.06;91.23
18652;BME280;9455;54.302;10.124;2022-12-07T09:03:20;101008.31;;;2.29;91.01
18652;BME280;9455;54.302;10.124;2022-12-07T09:05:47;101013.72;;;2.26;90.82
18652;BME280;9455;54.302;10.124;2022-12-07T09:08:15;101006.63;;;2.28;90.86
18652;BME280;9455;54.302;10.124;2022-12-07T09:10:42;101006.66;;;2.09;89.63
18652;BME280;9455;54.302;10.124;2022-12-07T09:13:09;101004.00;;;2.28;90.79
18652;BME280;9455;54.302;10.124;2022-12-07T09:15:35;101000.75;;;2.40;90.06
18652;BME280;9455;54.302;10.124;2022-12-07T09:18:02;100997.50;;;2.35;88.85
18652;BME280;9455;54.302;10.124;2022-12-07T09:20:29;100997.94;;;2.26;88.87
18652;BME280;9455;54.302;10.124;2022-12-07T09:22:56;100999.03;;;2.39;88.32
18652;BME280;9455;54.302;10.124;2022-12-07T09:25:24;100990.94;;;2.43;87.43
18652;BME280;9455;54.302;10.124;2022-12-07T09:27:55;100992.19;;;2.53;87.32
18652;BME280;9455;54.302;10.124;2022-12-07T09:30:22;100996.94;;;2.45;88.29
18652;BME280;9455;54.302;10.124;2022-12-07T09:32:48;100993.94;;;2.36;87.19
18652;BME280;9455;54.302;10.124;2022-12-07T09:35:15;100991.94;;;2.41;86.04
18652;BME280;9455;54.302;10.124;2022-12-07T09:37:42;100994.47;;;2.42;85.15
18652;BME280;9455;54.302;10.124;2022-12-07T09:40:09;100992.91;;;2.38;86.19
18652;BME280;9455;54.302;10.124;2022-12-07T09:42:39;100999.38;;;2.50;85.57
18652;BME280;9455;54.302;10.124;2022-12-07T09:45:10;100995.34;;;2.43;84.26
18652;BME280;9455;54.302;10.124;2022-12-07T09:47:38;100987.91;;;2.51;84.30
18652;BME280;9455;54.302;10.124;2022-12-07T09:50:12;100978.16;;;2.53;83.17
18652;BME280;9455;54.302;10.124;2022-12-07T09:52:39;100992.03;;;2.56;82.90
18652;BME280;9455;54.302;10.124;2022-12-07T09:55:11;100979.25;;;2.49;81.81
18652;BME280;9455;54.302;10.124;2022-12-07T09:57:39;100974.72;;;2.68;81.59
18652;BME280;9455;54.302;10.124;2022-12-07T10:00:12;100971.81;;;2.57;81.87
18652;BME280;9455;54.302;10.124;2022-12-07T10:02:41;100975.53;;;2.53;81.56
18652;BME280;9455;54.302;10.124;2022-12-07T10:05:13;100984.59;;;2.64;82.12
18652;BME280;9455;54.302;10.124;2022-12-07T10:07:40;100979.31;;;2.64;80.94
18652;BME280;9455;54.302;10.124;2022-12-07T10:10:13;100979.09;;;2.52;82.79
18652;BME280;9455;54.302;10.124;2022-12-07T10:12:56;100975.97;;;2.61;82.29
18652;BME280;9455;54.302;10.124;2022-12-07T10:15:41;100980.25;;;2.63;82.05
18652;BME280;9455;54.302;10.124;2022-12-07T10:18:18;100981.16;;;2.62;80.90
18652;BME280;9455;54.302;10.124;2022-12-07T10:20:46;100982.19;;;2.60;82.80
18652;BME280;9455;54.302;10.124;2022-12-07T10:23:15;100991.47;;;2.50;82.23
18652;BME280;9455;54.302;10.124;2022-12-07T10:25:41;100982.88;;;2.63;82.70
18652;BME280;9455;54.302;10.124;2022-12-07T10:28:17;100980.47;;;2.76;82.72
18652;BME280;9455;54.302;10.124;2022-12-07T10:30:51;100984.56;;;2.81;81.87
18652;BME280;9455;54.302;10.124;2022-12-07T10:33:31;100978.69;;;2.59;81.76
18652;BME280;9455;54.302;10.124;2022-12-07T10:35:58;100978.31;;;2.67;81.64
18652;BME280;9455;54.302;10.124;2022-12-07T10:38:26;100975.53;;;2.53;81.09
18652;BME280;9455;54.302;10.124;2022-12-07T10:41:04;100983.03;;;2.60;80.35
18652;BME280;9455;54.302;10.124;2022-12-07T10:43:32;100974.13;;;2.63;81.98
18652;BME280;9455;54.302;10.124;2022-12-07T10:46:16;100967.78;;;2.67;81.64
18652;BME280;9455;54.302;10.124;2022-12-07T10:48:55;100968.47;;;2.70;80.88
18652;BME280;9455;54.302;10.124;2022-12-07T10:51:30;100972.09;;;2.85;80.57
18652;BME280;9455;54.302;10.124;2022-12-07T10:54:10;100975.06;;;2.79;80.52
18652;BME280;9455;54.302;10.124;2022-12-07T10:56:54;100965.44;;;2.78;80.80
18652;BME280;9455;54.302;10.124;2022-12-07T10:59:55;100960.09;;;2.79;80.28
18652;BME280;9455;54.302;10.124;2022-12-07T11:02:33;100967.44;;;2.90;80.80
18652;BME280;9455;54.302;10.124;2022-12-07T11:05:14;100958.97;;;3.01;80.46
18652;BME280;9455;54.302;10.124;2022-12-07T11:07:52;100960.41;;;3.06;78.68
18652;BME280;9455;54.302;10.124;2022-12-07T11:10:26;100964.16;;;3.02;77.34
18652;BME280;9455;54.302;10.124;2022-12-07T11:18:43;100957.16;;;2.85;77.77
18652;BME280;9455;54.302;10.124;2022-12-07T11:21:18;100948.28;;;3.04;77.90
18652;BME280;9455;54.302;10.124;2022-12-07T11:23:50;100950.97;;;3.02;78.49
18652;BME280;9455;54.302;10.124;2022-12-07T11:26:27;100954.25;;;3.07;77.72
18652;BME280;9455;54.302;10.124;2022-12-07T11:29:13;100950.59;;;3.10;78.76
18652;BME280;9455;54.302;10.124;2022-12-07T11:31:56;100958.41;;;3.11;77.09
18652;BME280;9455;54.302;10.124;2022-12-07T11:34:33;100946.00;;;3.13;76.69
18652;BME280;9455;54.302;10.124;2022-12-07T11:37:09;100937.81;;;3.02;75.87
18652;BME280;9455;54.302;10.124;2022-12-07T11:39:41;100934.66;;;2.96;75.71
18652;BME280;9455;54.302;10.124;2022-12-07T11:42:14;100925.59;;;3.01;76.10
18652;BME280;9455;54.302;10.124;2022-12-07T11:44:49;100926.34;;;3.03;74.48
18652;BME280;9455;54.302;10.124;2022-12-07T11:47:25;100939.03;;;3.12;75.88
18652;BME280;9455;54.302;10.124;2022-12-07T11:49:54;100928.97;;;3.03;74.30
18652;BME280;9455;54.302;10.124;2022-12-07T11:52:27;100926.03;;;3.25;74.75
18652;BME280;9455;54.302;10.124;2022-12-07T11:54:58;100925.84;;;3.12;73.37
18652;BME280;9455;54.302;10.124;2022-12-07T11:57:32;100918.56;;;3.33;73.90
18652;BME280;9455;54.302;10.124;2022-12-07T12:00:04;100925.63;;;3.32;73.95
18652;BME280;9455;54.302;10.124;2022-12-07T12:02:37;100918.06;;;3.26;73.00
18652;BME280;9455;54.302;10.124;2022-12-07T12:05:15;100928.16;;;3.18;72.94
18652;BME280;9455;54.302;10.124;2022-12-07T12:07:44;100928.50;;;3.28;72.09
18652;BME280;9455;54.302;10.124;2022-12-07T12:10:18;100922.47;;;3.26;72.02
18652;BME280;9455;54.302;10.124;2022-12-07T12:13:10;100920.69;;;3.26;71.83
18652;BME280;9455;54.302;10.124;2022-12-07T12:15:59;100933.13;;;3.24;71.71
18652;BME280;9455;54.302;10.124;2022-12-07T12:18:47;100928.50;;;3.28;70.07
18652;BME280;9455;54.302;10.124;2022-12-07T12:21:20;100922.03;;;3.18;70.28
18652;BME280;9455;54.302;10.124;2022-12-07T12:23:55;100911.84;;;3.27;71.44
18652;BME280;9455;54.302;10.124;2022-12-07T12:26:24;100929.53;;;3.25;70.27
18652;BME280;9455;54.302;10.124;2022-12-07T12:28:54;100934.78;;;3.10;70.18
18652;BME280;9455;54.302;10.124;2022-12-07T12:31:38;100930.63;;;3.21;70.02
18652;BME280;9455;54.302;10.124;2022-12-07T12:34:32;100940.91;;;3.26;69.75
18652;BME280;9455;54.302;10.124;2022-12-07T12:36:59;100941.25;;;3.20;71.87
18652;BME280;9455;54.302;10.124;2022-12-07T12:39:25;100930.56;;;3.23;72.04
18652;BME280;9455;54.302;10.124;2022-12-07T12:41:57;100930.84;;;3.01;70.16
18652;BME280;9455;54.302;10.124;2022-12-07T12:45:03;100934.06;;;3.06;71.65
18652;BME280;9455;54.302;10.124;2022-12-07T12:47:43;100933.75;;;3.12;71.83
18652;BME280;9455;54.302;10.124;2022-12-07T12:50:22;100935.09;;;3.04;71.40
18652;BME280;9455;54.302;10.124;2022-12-07T12:53:05;100934.06;;;3.06;71.99
18652;BME280;9455;54.302;10.124;2022-12-07T12:58:40;100929.16;;;3.00;72.33
18652;BME280;9455;54.302;10.124;2022-12-07T13:01:39;100936.63;;;3.08;71.42
18652;BME280;9455;54.302;10.124;2022-12-07T13:07:47;100939.06;;;2.95;72.02
18652;BME280;9455;54.302;10.124;2022-12-07T13:10:22;100943.47;;;2.79;72.47
18652;BME280;9455;54.302;10.124;2022-12-07T13:12:57;100937.84;;;2.85;72.81
18652;BME280;9455;54.302;10.124;2022-12-07T13:15:37;100946.63;;;2.85;73.14
18652;BME280;9455;54.302;10.124;2022-12-07T13:18:23;100936.69;;;2.73;72.91
18652;BME280;9455;54.302;10.124;2022-12-07T13:20:52;100942.16;;;2.70;72.83
18652;BME280;9455;54.302;10.124;2022-12-07T13:23:23;100934.16;;;2.72;73.21
18652;BME280;9455;54.302;10.124;2022-12-07T13:28:50;100933.25;;;2.56;73.72